sensor_id;sensor_type;location;lat;lon;timestamp;P1;durP1;ratioP1;P2;durP2;ratioP2
25553;SDS011;13446;50.926;5.332;2024-01-15T00:01:16;54.47;;;20.73;;
25553;SDS011;13446;50.926;5.332;2024-01-15T00:03:42;55.67;;;20.45;;
25553;SDS011;13446;50.926;5.332;2024-01-15T00:06:08;58.53;;;20.70;;
25553;SDS011;13446;50.926;5.332;2024-01-15T00:08:33;59.60;;;20.08;;
25553;SDS011;13446;50.926;5.332;2024-01-15T00:10:59;57.38;;;21.80;;
25553;SDS011;13446;50.926;5.332;2024-01-15T00:13:25;58.03;;;21.52;;
25553;SDS011;13446;50.926;5.332;2024-01-15T00:15:51;56.72;;;21.83;;
25553;SDS011;13446;50.926;5.332;2024-01-15T00:18:16;58.63;;;21.80;;
25553;SDS011;13446;50.926;5.332;2024-01-15T00:20:42;62.13;;;21.98;;
25553;SDS011;13446;50.926;5.332;2024-01-15T00:23:08;61.60;;;21.42;;
25553;SDS011;13446;50.926;5.332;2024-01-15T00:25:34;63.88;;;21.45;;
25553;SDS011;13446;50.926;5.332;2024-01-15T00:27:59;62.75;;;22.55;;
25553;SDS011;13446;50.926;5.332;2024-01-15T00:30:25;64.22;;;22.40;;
25553;SDS011;13446;50.926;5.332;2024-01-15T00:32:51;73.18;;;23.98;;
25553;SDS011;13446;50.926;5.332;2024-01-15T00:35:17;55.90;;;22.20;;
25553;SDS011;13446;50.926;5.332;2024-01-15T00:37:43;59.00;;;21.77;;
25553;SDS011;13446;50.926;5.332;2024-01-15T00:40:08;63.53;;;22.73;;
25553;SDS011;13446;50.926;5.332;2024-01-15T00:42:34;61.72;;;22.95;;
25553;SDS011;13446;50.926;5.332;2024-01-15T00:45:00;67.63;;;23.55;;
25553;SDS011;13446;50.926;5.332;2024-01-15T00:47:26;62.10;;;23.30;;
25553;SDS011;13446;50.926;5.332;2024-01-15T00:49:51;65.63;;;23.75;;
25553;SDS011;13446;50.926;5.332;2024-01-15T00:52:17;71.53;;;23.17;;
25553;SDS011;13446;50.926;5.332;2024-01-15T00:54:43;63.22;;;23.05;;
25553;SDS011;13446;50.926;5.332;2024-01-15T00:57:08;65.50;;;23.23;;
25553;SDS011;13446;50.926;5.332;2024-01-15T00:59:34;65.57;;;23.38;;
25553;SDS011;13446;50.926;5.332;2024-01-15T01:02:00;63.55;;;22.30;;
25553;SDS011;13446;50.926;5.332;2024-01-15T01:04:26;64.50;;;22.20;;
25553;SDS011;13446;50.926;5.332;2024-01-15T01:06:52;70.95;;;22.77;;
25553;SDS011;13446;50.926;5.332;2024-01-15T01:09:18;67.38;;;22.15;;
25553;SDS011;13446;50.926;5.332;2024-01-15T01:11:43;75.05;;;24.42;;
25553;SDS011;13446;50.926;5.332;2024-01-15T01:14:09;69.18;;;23.20;;
25553;SDS011;13446;50.926;5.332;2024-01-15T01:16:35;75.35;;;24.80;;
25553;SDS011;13446;50.926;5.332;2024-01-15T01:19:04;72.28;;;23.85;;
25553;SDS011;13446;50.926;5.332;2024-01-15T01:21:31;69.45;;;22.80;;
25553;SDS011;13446;50.926;5.332;2024-01-15T01:23:58;70.43;;;24.40;;
25553;SDS011;13446;50.926;5.332;2024-01-15T01:26:23;66.70;;;23.75;;
25553;SDS011;13446;50.926;5.332;2024-01-15T01:28:49;61.60;;;21.95;;
25553;SDS011;13446;50.926;5.332;2024-01-15T01:31:15;59.72;;;22.42;;
25553;SDS011;13446;50.926;5.332;2024-01-15T01:33:41;72.57;;;23.35;;
25553;SDS011;13446;50.926;5.332;2024-01-15T01:36:10;60.92;;;22.17;;
25553;SDS011;13446;50.926;5.332;2024-01-15T01:38:36;61.47;;;22.30;;
25553;SDS011;13446;50.926;5.332;2024-01-15T01:41:02;64.20;;;22.02;;
25553;SDS011;13446;50.926;5.332;2024-01-15T01:43:28;56.05;;;21.27;;
25553;SDS011;13446;50.926;5.332;2024-01-15T01:45:57;64.50;;;21.73;;
25553;SDS011;13446;50.926;5.332;2024-01-15T01:48:25;57.90;;;21.73;;
25553;SDS011;13446;50.926;5.332;2024-01-15T01:50:52;60.60;;;21.83;;
25553;SDS011;13446;50.926;5.332;2024-01-15T01:53:20;53.80;;;19.25;;
25553;SDS011;13446;50.926;5.332;2024-01-15T01:55:46;57.50;;;20.60;;
25553;SDS011;13446;50.926;5.332;2024-01-15T01:58:13;51.33;;;19.30;;
25553;SDS011;13446;50.926;5.332;2024-01-15T02:00:40;58.15;;;21.45;;
25553;SDS011;13446;50.926;5.332;2024-01-15T02:03:06;53.60;;;19.17;;
25553;SDS011;13446;50.926;5.332;2024-01-15T02:05:32;50.63;;;19.13;;
25553;SDS011;13446;50.926;5.332;2024-01-15T02:08:00;49.25;;;19.50;;
25553;SDS011;13446;50.926;5.332;2024-01-15T02:10:25;50.80;;;19.17;;
25553;SDS011;13446;50.926;5.332;2024-01-15T02:12:51;53.10;;;19.10;;
25553;SDS011;13446;50.926;5.332;2024-01-15T02:15:17;45.88;;;18.15;;
25553;SDS011;13446;50.926;5.332;2024-01-15T02:20:28;44.50;;;17.73;;
25553;SDS011;13446;50.926;5.332;2024-01-15T02:23:03;49.78;;;19.20;;
25553;SDS011;13446;50.926;5.332;2024-01-15T02:25:34;44.72;;;17.05;;
25553;SDS011;13446;50.926;5.332;2024-01-15T02:28:00;48.42;;;17.30;;
25553;SDS011;13446;50.926;5.332;2024-01-15T02:30:27;46.28;;;17.50;;
25553;SDS011;13446;50.926;5.332;2024-01-15T02:32:55;39.00;;;16.25;;
25553;SDS011;13446;50.926;5.332;2024-01-15T02:35:20;45.83;;;18.17;;
25553;SDS011;13446;50.926;5.332;2024-01-15T02:37:46;43.22;;;15.65;;
25553;SDS011;13446;50.926;5.332;2024-01-15T02:40:12;42.60;;;16.60;;
25553;SDS011;13446;50.926;5.332;2024-01-15T02:42:37;42.25;;;16.60;;
25553;SDS011;13446;50.926;5.332;2024-01-15T02:45:03;43.60;;;17.20;;
25553;SDS011;13446;50.926;5.332;2024-01-15T02:47:30;52.35;;;17.55;;
25553;SDS011;13446;50.926;5.332;2024-01-15T02:49:55;44.97;;;15.73;;
25553;SDS011;13446;50.926;5.332;2024-01-15T02:52:21;47.45;;;17.80;;
25553;SDS011;13446;50.926;5.332;2024-01-15T02:54:46;41.58;;;16.00;;
25553;SDS011;13446;50.926;5.332;2024-01-15T02:57:12;38.92;;;15.50;;
25553;SDS011;13446;50.926;5.332;2024-01-15T02:59:38;41.85;;;16.08;;
25553;SDS011;13446;50.926;5.332;2024-01-15T03:02:04;36.85;;;15.88;;
25553;SDS011;13446;50.926;5.332;2024-01-15T03:04:29;42.80;;;14.98;;
25553;SDS011;13446;50.926;5.332;2024-01-15T03:06:55;38.53;;;15.88;;
25553;SDS011;13446;50.926;5.332;2024-01-15T03:09:20;38.47;;;15.05;;
25553;SDS011;13446;50.926;5.332;2024-01-15T03:11:46;39.78;;;14.95;;
25553;SDS011;13446;50.926;5.332;2024-01-15T03:14:12;41.17;;;15.88;;
25553;SDS011;13446;50.926;5.332;2024-01-15T03:16:37;42.80;;;14.90;;
25553;SDS011;13446;50.926;5.332;2024-01-15T03:19:03;37.30;;;14.43;;
25553;SDS011;13446;50.926;5.332;2024-01-15T03:21:29;38.65;;;15.05;;
25553;SDS011;13446;50.926;5.332;2024-01-15T03:23:54;35.85;;;13.60;;
25553;SDS011;13446;50.926;5.332;2024-01-15T03:26:20;34.15;;;13.40;;
25553;SDS011;13446;50.926;5.332;2024-01-15T03:28:46;32.28;;;13.45;;
25553;SDS011;13446;50.926;5.332;2024-01-15T03:31:12;33.47;;;14.07;;
25553;SDS011;13446;50.926;5.332;2024-01-15T03:33:38;32.95;;;12.95;;
25553;SDS011;13446;50.926;5.332;2024-01-15T03:36:03;30.83;;;13.93;;
25553;SDS011;13446;50.926;5.332;2024-01-15T03:38:29;30.77;;;12.68;;
25553;SDS011;13446;50.926;5.332;2024-01-15T03:40:55;29.40;;;12.35;;
25553;SDS011;13446;50.926;5.332;2024-01-15T03:43:20;29.23;;;12.13;;
25553;SDS011;13446;50.926;5.332;2024-01-15T03:45:46;31.90;;;12.68;;
25553;SDS011;13446;50.926;5.332;2024-01-15T03:48:11;30.02;;;11.85;;
25553;SDS011;13446;50.926;5.332;2024-01-15T03:50:37;26.88;;;11.57;;
25553;SDS011;13446;50.926;5.332;2024-01-15T03:53:03;30.73;;;12.00;;
25553;SDS011;13446;50.926;5.332;2024-01-15T03:55:29;28.55;;;12.27;;
25553;SDS011;13446;50.926;5.332;2024-01-15T03:57:54;30.30;;;12.32;;
25553;SDS011;13446;50.926;5.332;2024-01-15T04:00:20;26.48;;;12.23;;
25553;SDS011;13446;50.926;5.332;2024-01-15T04:02:46;26.63;;;12.05;;
25553;SDS011;13446;50.926;5.332;2024-01-15T04:05:11;26.42;;;10.95;;
25553;SDS011;13446;50.926;5.332;2024-01-15T04:07:37;30.27;;;11.57;;
25553;SDS011;13446;50.926;5.332;2024-01-15T04:10:03;26.05;;;11.40;;
25553;SDS011;13446;50.926;5.332;2024-01-15T04:12:29;32.25;;;11.57;;
25553;SDS011;13446;50.926;5.332;2024-01-15T04:14:54;27.98;;;11.75;;
25553;SDS011;13446;50.926;5.332;2024-01-15T04:17:20;25.50;;;11.43;;
25553;SDS011;13446;50.926;5.332;2024-01-15T04:19:46;27.38;;;11.48;;
25553;SDS011;13446;50.926;5.332;2024-01-15T04:22:13;24.10;;;10.95;;
25553;SDS011;13446;50.926;5.332;2024-01-15T04:24:39;29.10;;;11.63;;
25553;SDS011;13446;50.926;5.332;2024-01-15T04:27:05;24.17;;;11.80;;
25553;SDS011;13446;50.926;5.332;2024-01-15T04:29:31;25.92;;;11.50;;
25553;SDS011;13446;50.926;5.332;2024-01-15T04:31:57;31.65;;;11.98;;
25553;SDS011;13446;50.926;5.332;2024-01-15T04:34:22;32.10;;;12.30;;
25553;SDS011;13446;50.926;5.332;2024-01-15T04:36:48;26.45;;;10.88;;
25553;SDS011;13446;50.926;5.332;2024-01-15T04:39:13;25.60;;;11.23;;
25553;SDS011;13446;50.926;5.332;2024-01-15T04:41:39;30.05;;;11.27;;
25553;SDS011;13446;50.926;5.332;2024-01-15T04:44:05;26.38;;;12.00;;
25553;SDS011;13446;50.926;5.332;2024-01-15T04:46:30;27.98;;;11.52;;
25553;SDS011;13446;50.926;5.332;2024-01-15T04:48:56;24.33;;;10.85;;
25553;SDS011;13446;50.926;5.332;2024-01-15T04:51:22;27.88;;;11.82;;
25553;SDS011;13446;50.926;5.332;2024-01-15T04:53:47;24.90;;;11.20;;
25553;SDS011;13446;50.926;5.332;2024-01-15T04:56:13;25.77;;;10.32;;
25553;SDS011;13446;50.926;5.332;2024-01-15T04:58:39;24.95;;;10.98;;
25553;SDS011;13446;50.926;5.332;2024-01-15T05:01:04;31.83;;;12.15;;
25553;SDS011;13446;50.926;5.332;2024-01-15T05:03:30;26.00;;;11.80;;
25553;SDS011;13446;50.926;5.332;2024-01-15T05:05:56;28.60;;;12.15;;
25553;SDS011;13446;50.926;5.332;2024-01-15T05:08:21;29.65;;;12.63;;
25553;SDS011;13446;50.926;5.332;2024-01-15T05:10:47;29.40;;;13.57;;
25553;SDS011;13446;50.926;5.332;2024-01-15T05:13:13;34.58;;;14.02;;
25553;SDS011;13446;50.926;5.332;2024-01-15T05:15:38;34.70;;;14.85;;
25553;SDS011;13446;50.926;5.332;2024-01-15T05:18:04;34.72;;;14.60;;
25553;SDS011;13446;50.926;5.332;2024-01-15T05:20:31;37.63;;;15.60;;
25553;SDS011;13446;50.926;5.332;2024-01-15T05:22:56;41.63;;;15.52;;
25553;SDS011;13446;50.926;5.332;2024-01-15T05:25:22;43.78;;;17.08;;
25553;SDS011;13446;50.926;5.332;2024-01-15T05:27:48;45.65;;;17.35;;
25553;SDS011;13446;50.926;5.332;2024-01-15T05:30:13;46.63;;;18.15;;
25553;SDS011;13446;50.926;5.332;2024-01-15T05:32:39;48.95;;;19.98;;
25553;SDS011;13446;50.926;5.332;2024-01-15T05:35:05;47.17;;;18.55;;
25553;SDS011;13446;50.926;5.332;2024-01-15T05:37:31;48.72;;;20.30;;
25553;SDS011;13446;50.926;5.332;2024-01-15T05:39:57;48.15;;;19.83;;
25553;SDS011;13446;50.926;5.332;2024-01-15T05:42:22;49.15;;;19.30;;
25553;SDS011;13446;50.926;5.332;2024-01-15T05:44:48;49.55;;;20.25;;
25553;SDS011;13446;50.926;5.332;2024-01-15T05:47:14;60.08;;;20.65;;
25553;SDS011;13446;50.926;5.332;2024-01-15T05:49:40;52.53;;;21.13;;
25553;SDS011;13446;50.926;5.332;2024-01-15T05:52:05;52.47;;;21.92;;
25553;SDS011;13446;50.926;5.332;2024-01-15T05:54:31;54.58;;;20.40;;
25553;SDS011;13446;50.926;5.332;2024-01-15T05:56:57;54.88;;;21.45;;
25553;SDS011;13446;50.926;5.332;2024-01-15T05:59:23;50.45;;;20.40;;
25553;SDS011;13446;50.926;5.332;2024-01-15T06:01:48;52.47;;;20.95;;
25553;SDS011;13446;50.926;5.332;2024-01-15T06:04:14;52.00;;;20.85;;
25553;SDS011;13446;50.926;5.332;2024-01-15T06:06:40;47.72;;;20.63;;
25553;SDS011;13446;50.926;5.332;2024-01-15T06:09:05;55.90;;;21.25;;
25553;SDS011;13446;50.926;5.332;2024-01-15T06:11:31;54.05;;;20.77;;
25553;SDS011;13446;50.926;5.332;2024-01-15T06:13:57;49.35;;;20.85;;
25553;SDS011;13446;50.926;5.332;2024-01-15T06:16:25;52.45;;;20.67;;
25553;SDS011;13446;50.926;5.332;2024-01-15T06:18:51;47.38;;;20.80;;
25553;SDS011;13446;50.926;5.332;2024-01-15T06:21:17;46.20;;;18.85;;
25553;SDS011;13446;50.926;5.332;2024-01-15T06:23:42;48.72;;;19.63;;
25553;SDS011;13446;50.926;5.332;2024-01-15T06:26:08;44.83;;;19.55;;
25553;SDS011;13446;50.926;5.332;2024-01-15T06:28:36;48.22;;;19.52;;
25553;SDS011;13446;50.926;5.332;2024-01-15T06:31:02;43.50;;;18.05;;
25553;SDS011;13446;50.926;5.332;2024-01-15T06:33:28;45.70;;;18.70;;
25553;SDS011;13446;50.926;5.332;2024-01-15T06:35:53;47.72;;;18.23;;
25553;SDS011;13446;50.926;5.332;2024-01-15T06:38:19;44.53;;;18.80;;
25553;SDS011;13446;50.926;5.332;2024-01-15T06:40:45;45.10;;;18.45;;
25553;SDS011;13446;50.926;5.332;2024-01-15T06:43:13;48.10;;;19.25;;
25553;SDS011;13446;50.926;5.332;2024-01-15T06:45:40;38.28;;;17.30;;
25553;SDS011;13446;50.926;5.332;2024-01-15T06:48:06;39.60;;;17.08;;
25553;SDS011;13446;50.926;5.332;2024-01-15T06:50:32;38.33;;;17.17;;
25553;SDS011;13446;50.926;5.332;2024-01-15T06:52:58;50.85;;;18.70;;
25553;SDS011;13446;50.926;5.332;2024-01-15T06:55:24;41.85;;;16.67;;
25553;SDS011;13446;50.926;5.332;2024-01-15T06:57:50;39.55;;;16.48;;
25553;SDS011;13446;50.926;5.332;2024-01-15T07:00:17;42.17;;;16.15;;
25553;SDS011;13446;50.926;5.332;2024-01-15T07:02:44;44.13;;;16.05;;
25553;SDS011;13446;50.926;5.332;2024-01-15T07:05:10;40.47;;;15.75;;
25553;SDS011;13446;50.926;5.332;2024-01-15T07:07:36;35.78;;;14.48;;
25553;SDS011;13446;50.926;5.332;2024-01-15T07:10:02;32.72;;;13.90;;
25553;SDS011;13446;50.926;5.332;2024-01-15T07:12:28;35.55;;;13.23;;
25553;SDS011;13446;50.926;5.332;2024-01-15T07:14:55;28.58;;;11.68;;
25553;SDS011;13446;50.926;5.332;2024-01-15T07:17:21;25.08;;;11.95;;
25553;SDS011;13446;50.926;5.332;2024-01-15T07:19:47;26.02;;;11.85;;
25553;SDS011;13446;50.926;5.332;2024-01-15T07:22:14;23.50;;;10.02;;
25553;SDS011;13446;50.926;5.332;2024-01-15T07:24:42;25.60;;;10.50;;
25553;SDS011;13446;50.926;5.332;2024-01-15T07:27:08;27.70;;;10.32;;
25553;SDS011;13446;50.926;5.332;2024-01-15T07:29:34;25.92;;;10.02;;
25553;SDS011;13446;50.926;5.332;2024-01-15T07:32:03;23.77;;;9.95;;
25553;SDS011;13446;50.926;5.332;2024-01-15T07:34:29;21.45;;;8.98;;
25553;SDS011;13446;50.926;5.332;2024-01-15T07:36:56;20.02;;;8.88;;
25553;SDS011;13446;50.926;5.332;2024-01-15T07:39:22;23.27;;;9.38;;
25553;SDS011;13446;50.926;5.332;2024-01-15T07:41:49;16.75;;;7.97;;
25553;SDS011;13446;50.926;5.332;2024-01-15T07:44:18;19.35;;;7.78;;
25553;SDS011;13446;50.926;5.332;2024-01-15T07:46:44;18.05;;;8.07;;
25553;SDS011;13446;50.926;5.332;2024-01-15T07:49:11;19.52;;;7.93;;
25553;SDS011;13446;50.926;5.332;2024-01-15T07:51:37;21.52;;;7.43;;
25553;SDS011;13446;50.926;5.332;2024-01-15T07:54:03;16.98;;;6.40;;
25553;SDS011;13446;50.926;5.332;2024-01-15T07:56:29;16.52;;;6.85;;
25553;SDS011;13446;50.926;5.332;2024-01-15T07:58:54;13.52;;;5.88;;
25553;SDS011;13446;50.926;5.332;2024-01-15T08:01:21;13.18;;;5.43;;
25553;SDS011;13446;50.926;5.332;2024-01-15T08:03:47;11.32;;;4.78;;
25553;SDS011;13446;50.926;5.332;2024-01-15T08:06:13;12.75;;;5.75;;
25553;SDS011;13446;50.926;5.332;2024-01-15T08:08:39;13.68;;;5.07;;
25553;SDS011;13446;50.926;5.332;2024-01-15T08:11:04;18.48;;;5.05;;
25553;SDS011;13446;50.926;5.332;2024-01-15T08:13:30;10.15;;;4.35;;
25553;SDS011;13446;50.926;5.332;2024-01-15T08:15:56;14.82;;;4.60;;
25553;SDS011;13446;50.926;5.332;2024-01-15T08:18:22;9.70;;;4.40;;
25553;SDS011;13446;50.926;5.332;2024-01-15T08:20:47;13.10;;;4.32;;
25553;SDS011;13446;50.926;5.332;2024-01-15T08:23:13;17.42;;;4.47;;
25553;SDS011;13446;50.926;5.332;2024-01-15T08:25:39;13.60;;;4.40;;
25553;SDS011;13446;50.926;5.332;2024-01-15T08:28:05;11.55;;;4.40;;
25553;SDS011;13446;50.926;5.332;2024-01-15T08:30:31;9.55;;;3.90;;
25553;SDS011;13446;50.926;5.332;2024-01-15T08:32:56;8.95;;;4.00;;
25553;SDS011;13446;50.926;5.332;2024-01-15T08:35:24;10.70;;;4.25;;
25553;SDS011;13446;50.926;5.332;2024-01-15T08:37:50;11.32;;;3.95;;
25553;SDS011;13446;50.926;5.332;2024-01-15T08:40:16;20.60;;;5.22;;
25553;SDS011;13446;50.926;5.332;2024-01-15T08:42:42;10.85;;;4.20;;
25553;SDS011;13446;50.926;5.332;2024-01-15T08:45:08;12.05;;;4.25;;
25553;SDS011;13446;50.926;5.332;2024-01-15T08:47:34;9.70;;;4.55;;
25553;SDS011;13446;50.926;5.332;2024-01-15T08:50:00;10.23;;;4.80;;
25553;SDS011;13446;50.926;5.332;2024-01-15T08:52:27;12.98;;;5.47;;
25553;SDS011;13446;50.926;5.332;2024-01-15T08:54:52;12.32;;;5.18;;
25553;SDS011;13446;50.926;5.332;2024-01-15T08:57:19;13.02;;;4.50;;
25553;SDS011;13446;50.926;5.332;2024-01-15T08:59:45;12.73;;;3.92;;
25553;SDS011;13446;50.926;5.332;2024-01-15T09:02:10;7.63;;;3.90;;
25553;SDS011;13446;50.926;5.332;2024-01-15T09:04:36;8.05;;;3.80;;
25553;SDS011;13446;50.926;5.332;2024-01-15T09:07:02;10.23;;;3.92;;
25553;SDS011;13446;50.926;5.332;2024-01-15T09:09:27;6.75;;;3.58;;
25553;SDS011;13446;50.926;5.332;2024-01-15T09:11:53;16.90;;;4.32;;
25553;SDS011;13446;50.926;5.332;2024-01-15T09:14:18;12.95;;;3.50;;
25553;SDS011;13446;50.926;5.332;2024-01-15T09:16:46;13.77;;;3.63;;
25553;SDS011;13446;50.926;5.332;2024-01-15T09:19:12;10.85;;;3.15;;
25553;SDS011;13446;50.926;5.332;2024-01-15T09:21:38;15.88;;;4.20;;
25553;SDS011;13446;50.926;5.332;2024-01-15T09:24:05;12.65;;;3.95;;
25553;SDS011;13446;50.926;5.332;2024-01-15T09:26:30;13.23;;;4.03;;
25553;SDS011;13446;50.926;5.332;2024-01-15T09:28:57;15.07;;;3.53;;
25553;SDS011;13446;50.926;5.332;2024-01-15T09:31:22;9.10;;;4.35;;
25553;SDS011;13446;50.926;5.332;2024-01-15T09:33:49;17.65;;;4.07;;
25553;SDS011;13446;50.926;5.332;2024-01-15T09:36:17;10.88;;;4.38;;
25553;SDS011;13446;50.926;5.332;2024-01-15T09:38:43;14.38;;;4.80;;
25553;SDS011;13446;50.926;5.332;2024-01-15T09:41:08;8.40;;;4.43;;
25553;SDS011;13446;50.926;5.332;2024-01-15T09:43:34;11.10;;;4.00;;
25553;SDS011;13446;50.926;5.332;2024-01-15T09:46:02;18.23;;;4.97;;
25553;SDS011;13446;50.926;5.332;2024-01-15T09:48:28;17.52;;;4.88;;
25553;SDS011;13446;50.926;5.332;2024-01-15T09:50:54;12.05;;;3.97;;
25553;SDS011;13446;50.926;5.332;2024-01-15T09:53:23;9.95;;;4.50;;
25553;SDS011;13446;50.926;5.332;2024-01-15T09:55:50;10.18;;;3.72;;
25553;SDS011;13446;50.926;5.332;2024-01-15T09:58:16;10.90;;;3.70;;
25553;SDS011;13446;50.926;5.332;2024-01-15T10:00:42;12.93;;;4.15;;
25553;SDS011;13446;50.926;5.332;2024-01-15T10:03:09;12.32;;;4.22;;
25553;SDS011;13446;50.926;5.332;2024-01-15T10:05:36;10.82;;;3.40;;
25553;SDS011;13446;50.926;5.332;2024-01-15T10:08:02;12.02;;;3.60;;
25553;SDS011;13446;50.926;5.332;2024-01-15T10:10:29;7.90;;;3.67;;
25553;SDS011;13446;50.926;5.332;2024-01-15T10:12:56;12.75;;;3.30;;
25553;SDS011;13446;50.926;5.332;2024-01-15T10:15:23;12.98;;;3.25;;
25553;SDS011;13446;50.926;5.332;2024-01-15T10:17:51;10.98;;;3.40;;
25553;SDS011;13446;50.926;5.332;2024-01-15T10:20:17;13.45;;;2.63;;
25553;SDS011;13446;50.926;5.332;2024-01-15T10:22:43;10.43;;;2.53;;
25553;SDS011;13446;50.926;5.332;2024-01-15T10:25:12;11.48;;;2.63;;
25553;SDS011;13446;50.926;5.332;2024-01-15T10:27:39;6.45;;;2.22;;
25553;SDS011;13446;50.926;5.332;2024-01-15T10:30:06;12.38;;;2.17;;
25553;SDS011;13446;50.926;5.332;2024-01-15T10:32:32;7.00;;;1.75;;
25553;SDS011;13446;50.926;5.332;2024-01-15T10:34:58;13.77;;;2.28;;
25553;SDS011;13446;50.926;5.332;2024-01-15T10:37:24;9.73;;;2.47;;
25553;SDS011;13446;50.926;5.332;2024-01-15T10:39:50;11.55;;;2.08;;
25553;SDS011;13446;50.926;5.332;2024-01-15T10:42:17;9.75;;;2.00;;
25553;SDS011;13446;50.926;5.332;2024-01-15T10:44:43;7.82;;;1.67;;
25553;SDS011;13446;50.926;5.332;2024-01-15T10:47:11;11.15;;;2.05;;
25553;SDS011;13446;50.926;5.332;2024-01-15T10:49:37;7.85;;;2.63;;
25553;SDS011;13446;50.926;5.332;2024-01-15T10:52:03;11.13;;;2.10;;
25553;SDS011;13446;50.926;5.332;2024-01-15T10:54:29;7.35;;;2.13;;
25553;SDS011;13446;50.926;5.332;2024-01-15T10:56:57;9.32;;;2.30;;
25553;SDS011;13446;50.926;5.332;2024-01-15T11:01:53;7.53;;;1.90;;
25553;SDS011;13446;50.926;5.332;2024-01-15T11:04:20;12.25;;;2.17;;
25553;SDS011;13446;50.926;5.332;2024-01-15T11:06:49;8.93;;;1.67;;
25553;SDS011;13446;50.926;5.332;2024-01-15T11:09:18;8.10;;;1.52;;
25553;SDS011;13446;50.926;5.332;2024-01-15T11:11:44;11.82;;;2.13;;
25553;SDS011;13446;50.926;5.332;2024-01-15T11:16:59;13.10;;;1.90;;
25553;SDS011;13446;50.926;5.332;2024-01-15T11:19:25;16.13;;;2.13;;
25553;SDS011;13446;50.926;5.332;2024-01-15T11:21:51;9.88;;;2.20;;
25553;SDS011;13446;50.926;5.332;2024-01-15T11:27:05;11.10;;;1.05;;
25553;SDS011;13446;50.926;5.332;2024-01-15T11:29:33;8.15;;;1.65;;
25553;SDS011;13446;50.926;5.332;2024-01-15T11:37:26;8.55;;;2.40;;
25553;SDS011;13446;50.926;5.332;2024-01-15T11:40:12;5.13;;;2.07;;
25553;SDS011;13446;50.926;5.332;2024-01-15T11:42:39;13.10;;;2.28;;
25553;SDS011;13446;50.926;5.332;2024-01-15T11:45:05;9.35;;;1.73;;
25553;SDS011;13446;50.926;5.332;2024-01-15T11:47:38;8.20;;;2.00;;
25553;SDS011;13446;50.926;5.332;2024-01-15T11:50:13;8.85;;;1.67;;
25553;SDS011;13446;50.926;5.332;2024-01-15T11:52:39;8.55;;;1.77;;
25553;SDS011;13446;50.926;5.332;2024-01-15T11:57:53;8.93;;;1.98;;
25553;SDS011;13446;50.926;5.332;2024-01-15T12:00:22;9.88;;;2.25;;
25553;SDS011;13446;50.926;5.332;2024-01-15T12:02:48;5.35;;;2.03;;
25553;SDS011;13446;50.926;5.332;2024-01-15T12:05:16;7.03;;;2.38;;
25553;SDS011;13446;50.926;5.332;2024-01-15T12:07:43;9.35;;;2.45;;
25553;SDS011;13446;50.926;5.332;2024-01-15T12:10:14;6.55;;;2.33;;
25553;SDS011;13446;50.926;5.332;2024-01-15T12:15:25;7.05;;;2.95;;
25553;SDS011;13446;50.926;5.332;2024-01-15T12:17:53;5.90;;;2.05;;
25553;SDS011;13446;50.926;5.332;2024-01-15T12:20:24;5.00;;;2.15;;
25553;SDS011;13446;50.926;5.332;2024-01-15T12:25:22;5.10;;;1.73;;
25553;SDS011;13446;50.926;5.332;2024-01-15T12:27:49;2.97;;;1.80;;
25553;SDS011;13446;50.926;5.332;2024-01-15T12:30:15;7.68;;;1.60;;
25553;SDS011;13446;50.926;5.332;2024-01-15T12:32:41;3.65;;;1.77;;
25553;SDS011;13446;50.926;5.332;2024-01-15T12:35:07;3.80;;;1.73;;
25553;SDS011;13446;50.926;5.332;2024-01-15T12:37:40;6.97;;;1.92;;
25553;SDS011;13446;50.926;5.332;2024-01-15T12:40:07;4.35;;;1.65;;
25553;SDS011;13446;50.926;5.332;2024-01-15T12:42:37;5.28;;;1.90;;
25553;SDS011;13446;50.926;5.332;2024-01-15T12:45:06;8.97;;;2.00;;
25553;SDS011;13446;50.926;5.332;2024-01-15T12:47:33;5.88;;;2.10;;
25553;SDS011;13446;50.926;5.332;2024-01-15T12:49:59;3.67;;;1.80;;
25553;SDS011;13446;50.926;5.332;2024-01-15T12:52:29;9.90;;;2.35;;
25553;SDS011;13446;50.926;5.332;2024-01-15T12:54:55;7.72;;;2.10;;
25553;SDS011;13446;50.926;5.332;2024-01-15T12:57:20;2.47;;;1.65;;
25553;SDS011;13446;50.926;5.332;2024-01-15T12:59:46;3.08;;;2.00;;
25553;SDS011;13446;50.926;5.332;2024-01-15T13:02:15;5.25;;;1.77;;
25553;SDS011;13446;50.926;5.332;2024-01-15T13:04:41;4.65;;;2.25;;
25553;SDS011;13446;50.926;5.332;2024-01-15T13:07:08;4.55;;;2.47;;
25553;SDS011;13446;50.926;5.332;2024-01-15T13:09:34;5.35;;;2.22;;
25553;SDS011;13446;50.926;5.332;2024-01-15T13:12:00;9.13;;;2.10;;
25553;SDS011;13446;50.926;5.332;2024-01-15T13:14:27;2.38;;;1.40;;
25553;SDS011;13446;50.926;5.332;2024-01-15T13:16:53;6.00;;;1.35;;
25553;SDS011;13446;50.926;5.332;2024-01-15T13:19:19;3.97;;;1.48;;
25553;SDS011;13446;50.926;5.332;2024-01-15T13:21:46;3.13;;;1.45;;
25553;SDS011;13446;50.926;5.332;2024-01-15T13:24:13;7.55;;;1.70;;
25553;SDS011;13446;50.926;5.332;2024-01-15T13:26:39;5.38;;;1.70;;
25553;SDS011;13446;50.926;5.332;2024-01-15T13:29:05;3.42;;;1.30;;
25553;SDS011;13446;50.926;5.332;2024-01-15T13:31:32;3.05;;;1.30;;
25553;SDS011;13446;50.926;5.332;2024-01-15T13:33:58;3.40;;;1.35;;
25553;SDS011;13446;50.926;5.332;2024-01-15T13:36:27;6.55;;;1.30;;
25553;SDS011;13446;50.926;5.332;2024-01-15T13:38:53;5.63;;;1.50;;
25553;SDS011;13446;50.926;5.332;2024-01-15T13:41:19;2.47;;;1.60;;
25553;SDS011;13446;50.926;5.332;2024-01-15T13:43:52;3.03;;;1.35;;
25553;SDS011;13446;50.926;5.332;2024-01-15T13:46:20;2.58;;;1.75;;
25553;SDS011;13446;50.926;5.332;2024-01-15T13:48:48;4.78;;;1.65;;
25553;SDS011;13446;50.926;5.332;2024-01-15T13:51:14;8.55;;;2.40;;
25553;SDS011;13446;50.926;5.332;2024-01-15T13:53:40;5.95;;;2.08;;
25553;SDS011;13446;50.926;5.332;2024-01-15T13:56:05;6.47;;;2.35;;
25553;SDS011;13446;50.926;5.332;2024-01-15T13:58:32;6.32;;;2.13;;
25553;SDS011;13446;50.926;5.332;2024-01-15T14:01:00;6.75;;;2.17;;
25553;SDS011;13446;50.926;5.332;2024-01-15T14:03:28;4.25;;;1.60;;
25553;SDS011;13446;50.926;5.332;2024-01-15T14:05:54;3.03;;;1.48;;
25553;SDS011;13446;50.926;5.332;2024-01-15T14:08:20;4.30;;;1.60;;
25553;SDS011;13446;50.926;5.332;2024-01-15T14:10:46;6.15;;;1.67;;
25553;SDS011;13446;50.926;5.332;2024-01-15T14:13:12;3.05;;;1.45;;
25553;SDS011;13446;50.926;5.332;2024-01-15T14:15:38;7.65;;;1.70;;
25553;SDS011;13446;50.926;5.332;2024-01-15T14:18:05;3.08;;;1.58;;
25553;SDS011;13446;50.926;5.332;2024-01-15T14:20:30;3.08;;;1.30;;
25553;SDS011;13446;50.926;5.332;2024-01-15T14:22:56;1.70;;;1.17;;
25553;SDS011;13446;50.926;5.332;2024-01-15T14:25:22;4.45;;;1.10;;
25553;SDS011;13446;50.926;5.332;2024-01-15T14:27:49;3.67;;;1.17;;
25553;SDS011;13446;50.926;5.332;2024-01-15T14:30:15;3.47;;;1.40;;
25553;SDS011;13446;50.926;5.332;2024-01-15T14:32:41;5.40;;;1.10;;
25553;SDS011;13446;50.926;5.332;2024-01-15T14:35:08;2.88;;;1.25;;
25553;SDS011;13446;50.926;5.332;2024-01-15T14:37:36;4.45;;;1.27;;
25553;SDS011;13446;50.926;5.332;2024-01-15T14:40:03;2.35;;;1.35;;
25553;SDS011;13446;50.926;5.332;2024-01-15T14:42:29;3.33;;;1.80;;
25553;SDS011;13446;50.926;5.332;2024-01-15T14:44:56;3.38;;;1.80;;
25553;SDS011;13446;50.926;5.332;2024-01-15T14:47:21;3.90;;;1.52;;
25553;SDS011;13446;50.926;5.332;2024-01-15T14:49:49;2.40;;;1.45;;